Time;durP1;ratioP1;P1;durP2;ratioP2;P2;SDS_P1;SDS_P2;PMS_P1;PMS_P2;Temp;Humidity;BMP_temperature;BMP_pressure;BME280_temperature;BME280_humidity;BME280_pressure;Samples;Min_cycle;Max_cycle;Signal;HPM_P1;HPM_P2
2020/12/20 00:00:11;;;;;;;3.60;2.10;;;9.70;49.00;;;;;;5021066;28;20381;-81
2020/12/20 00:02:37;;;;;;;4.20;2.78;;;9.70;49.20;;;;;;5019187;28;20408;-74
2020/12/20 00:05:07;;;;;;;3.30;2.20;;;9.70;49.40;;;;;;5019377;28;20056;-72
2020/12/20 00:07:33;;;;;;;4.15;2.72;;;9.70;49.50;;;;;;5020345;28;20037;-76
2020/12/20 00:09:58;;;;;;;3.92;2.90;;;9.60;49.60;;;;;;5026504;28;20021;-84
2020/12/20 00:12:25;;;;;;;4.85;2.88;;;9.60;49.80;;;;;;5027901;28;20022;-74
2020/12/20 00:14:50;;;;;;;4.55;3.00;;;9.60;50.10;;;;;;5025291;28;20033;-77
2020/12/20 00:17:16;;;;;;;6.20;3.05;;;9.60;50.40;;;;;;5020802;28;20018;-83
2020/12/20 00:19:42;;;;;;;5.00;3.33;;;9.50;50.80;;;;;;5021822;28;20040;-83
2020/12/20 00:22:11;;;;;;;3.78;2.88;;;9.50;51.00;;;;;;5039471;28;20033;-84
2020/12/20 00:24:37;;;;;;;6.20;3.58;;;9.40;51.10;;;;;;5020274;28;20028;-84
2020/12/20 00:27:05;;;;;;;4.43;3.08;;;9.40;51.50;;;;;;5021724;28;20052;-75
2020/12/20 00:29:33;;;;;;;4.55;3.17;;;9.30;51.70;;;;;;5018682;28;20025;-72
2020/12/20 00:31:59;;;;;;;5.95;3.67;;;9.20;51.80;;;;;;5036300;28;20021;-72
2020/12/20 00:34:25;;;;;;;5.72;3.38;;;9.20;52.30;;;;;;5018527;28;20036;-72
2020/12/20 00:36:51;;;;;;;5.80;3.80;;;9.10;52.30;;;;;;5036220;28;20026;-72
2020/12/20 00:39:18;;;;;;;7.13;4.32;;;9.10;52.70;;;;;;5036236;28;20115;-73
2020/12/20 00:41:49;;;;;;;5.15;3.03;;;9.10;53.10;;;;;;5036028;28;20037;-72
2020/12/20 00:44:15;;;;;;;6.10;3.60;;;9.00;53.30;;;;;;5036083;28;20033;-72
2020/12/20 00:46:41;;;;;;;5.57;3.22;;;9.10;53.60;;;;;;5035989;28;20030;-73
2020/12/20 00:49:06;;;;;;;4.75;3.15;;;9.10;53.50;;;;;;5036018;28;20022;-73
2020/12/20 00:51:32;;;;;;;3.83;2.63;;;9.10;53.30;;;;;;5036015;28;20100;-72
2020/12/20 00:53:58;;;;;;;4.95;3.47;;;9.10;53.40;;;;;;5035860;28;20063;-72
2020/12/20 00:56:24;;;;;;;5.97;3.40;;;9.10;53.70;;;;;;5035951;28;20120;-73
2020/12/20 00:58:49;;;;;;;5.85;3.58;;;9.10;54.00;;;;;;5035908;28;20060;-73
2020/12/20 01:01:16;;;;;;;4.53;3.38;;;9.00;54.20;;;;;;5035508;28;20042;-72
2020/12/20 01:03:42;;;;;;;5.13;3.67;;;9.10;54.40;;;;;;5035499;28;20033;-72
2020/12/20 01:06:08;;;;;;;5.82;3.67;;;9.00;54.60;;;;;;5035408;28;20025;-72
2020/12/20 01:08:33;;;;;;;8.70;4.75;;;9.00;54.90;;;;;;5035488;28;20029;-71
2020/12/20 01:10:59;;;;;;;7.40;4.10;;;8.90;55.40;;;;;;5035463;28;20025;-73
2020/12/20 01:13:25;;;;;;;7.55;4.32;;;8.90;55.90;;;;;;5035542;28;20036;-74
2020/12/20 01:15:50;;;;;;;7.13;4.28;;;8.80;56.10;;;;;;5035445;28;20384;-73
2020/12/20 01:18:17;;;;;;;6.03;3.75;;;8.80;56.20;;;;;;5035396;28;20025;-72
2020/12/20 01:20:43;;;;;;;6.22;4.10;;;8.70;56.40;;;;;;5035345;28;20492;-73
2020/12/20 01:23:08;;;;;;;6.25;3.78;;;8.60;56.50;;;;;;5035317;28;20017;-73
2020/12/20 01:25:34;;;;;;;5.70;3.63;;;8.60;56.80;;;;;;5035406;28;20032;-73
2020/12/20 01:27:59;;;;;;;5.82;3.78;;;8.50;57.20;;;;;;5017405;28;20361;-73
2020/12/20 01:30:25;;;;;;;4.63;3.38;;;8.50;57.40;;;;;;5035226;28;20022;-73
2020/12/20 01:32:50;;;;;;;4.88;3.38;;;8.50;57.40;;;;;;5035117;28;20029;-74
2020/12/20 01:35:16;;;;;;;8.70;3.72;;;8.40;57.30;;;;;;5035048;28;20025;-76
2020/12/20 01:37:41;;;;;;;6.15;3.50;;;8.40;57.40;;;;;;5035109;28;20100;-72
2020/12/20 01:40:08;;;;;;;6.07;3.97;;;8.40;57.70;;;;;;5034957;28;20025;-76
2020/12/20 01:42:34;;;;;;;6.25;3.90;;;8.40;58.00;;;;;;5035048;28;20029;-72
2020/12/20 01:44:59;;;;;;;6.40;3.88;;;8.40;58.10;;;;;;5034960;28;20071;-72
2020/12/20 01:47:32;;;;;;;5.75;4.05;;;8.30;58.10;;;;;;5034920;28;20033;-73
2020/12/20 01:49:59;;;;;;;5.70;3.58;;;8.30;58.30;;;;;;5034811;28;20014;-72
2020/12/20 01:52:25;;;;;;;6.72;3.80;;;8.20;58.40;;;;;;5034783;28;20022;-74
2020/12/20 01:54:56;;;;;;;4.68;3.63;;;8.20;58.80;;;;;;5034727;28;20029;-72
2020/12/20 01:57:22;;;;;;;6.72;4.28;;;8.20;58.80;;;;;;5034859;28;20096;-73
2020/12/20 01:59:48;;;;;;;7.85;4.32;;;8.20;58.80;;;;;;5034862;28;20025;-73
2020/12/20 02:02:14;;;;;;;7.07;3.85;;;8.10;59.50;;;;;;5035407;28;20493;-72
2020/12/20 02:04:41;;;;;;;7.25;4.07;;;8.10;59.70;;;;;;5035489;28;20029;-72
2020/12/20 02:07:07;;;;;;;5.78;3.92;;;8.00;59.70;;;;;;5037315;28;20040;-72
2020/12/20 02:09:33;;;;;;;5.70;3.72;;;8.10;59.80;;;;;;5037591;28;20030;-72
2020/12/20 02:12:03;;;;;;;5.78;3.85;;;8.00;59.80;;;;;;5035415;28;20025;-72
2020/12/20 02:14:29;;;;;;;4.45;3.38;;;7.90;60.00;;;;;;5034684;28;20400;-73
2020/12/20 02:16:54;;;;;;;8.13;4.80;;;7.90;59.90;;;;;;5033732;28;20025;-73
2020/12/20 02:19:21;;;;;;;7.38;4.70;;;7.90;60.10;;;;;;5034249;28;20484;-74
2020/12/20 02:21:46;;;;;;;6.30;4.47;;;7.90;60.40;;;;;;5034172;28;20029;-73
2020/12/20 02:24:12;;;;;;;6.18;4.43;;;7.90;60.70;;;;;;5034140;28;20526;-73
2020/12/20 02:26:38;;;;;;;8.30;4.93;;;7.80;61.20;;;;;;5034208;28;20022;-72
2020/12/20 02:29:03;;;;;;;7.22;4.28;;;7.70;61.60;;;;;;5016432;28;20057;-73
2020/12/20 02:31:29;;;;;;;6.03;4.78;;;7.70;62.10;;;;;;5034275;28;20037;-77
2020/12/20 02:33:56;;;;;;;8.73;4.35;;;7.70;62.50;;;;;;5034069;28;20072;-74
2020/12/20 02:36:21;;;;;;;5.63;4.20;;;7.60;62.40;;;;;;5034104;28;20100;-74
2020/12/20 02:38:47;;;;;;;5.45;3.97;;;7.70;62.50;;;;;;5034079;28;20064;-75
2020/12/20 02:41:12;;;;;;;9.15;3.90;;;7.60;62.20;;;;;;5016324;28;20083;-76
2020/12/20 02:43:38;;;;;;;5.88;3.45;;;7.70;61.80;;;;;;5034132;28;20029;-75
2020/12/20 02:46:03;;;;;;;6.72;3.70;;;7.70;61.40;;;;;;5033962;28;20056;-75
2020/12/20 02:48:29;;;;;;;5.35;3.65;;;7.70;61.40;;;;;;5033832;28;20075;-74
2020/12/20 02:50:55;;;;;;;6.50;4.35;;;7.70;61.60;;;;;;5033846;28;20081;-71
2020/12/20 02:53:20;;;;;;;6.57;4.25;;;7.80;62.00;;;;;;5033816;28;20481;-73
2020/12/20 02:55:46;;;;;;;6.97;4.35;;;7.70;62.40;;;;;;5033832;28;20026;-74
2020/12/20 02:58:11;;;;;;;5.85;4.38;;;7.70;62.70;;;;;;5033677;28;20033;-78
2020/12/20 03:00:38;;;;;;;6.75;3.92;;;7.60;62.80;;;;;;5033646;28;20045;-74
2020/12/20 03:03:05;;;;;;;7.45;3.72;;;7.60;63.00;;;;;;5033430;28;20044;-76
2020/12/20 03:05:31;;;;;;;7.00;4.15;;;7.60;63.00;;;;;;5033620;28;20014;-76
2020/12/20 03:07:56;;;;;;;5.55;3.72;;;7.60;62.90;;;;;;5015795;28;20393;-73
2020/12/20 03:10:22;;;;;;;4.70;3.80;;;7.60;62.80;;;;;;5033784;28;20022;-73
2020/12/20 03:12:47;;;;;;;7.25;4.10;;;7.70;62.60;;;;;;5033559;28;20026;-75
2020/12/20 03:15:13;;;;;;;7.15;3.65;;;7.70;62.40;;;;;;5033349;28;20037;-74
2020/12/20 03:17:39;;;;;;;5.07;3.72;;;7.70;62.40;;;;;;5033423;28;20025;-75
2020/12/20 03:20:05;;;;;;;6.55;4.18;;;7.70;62.30;;;;;;5033383;28;20104;-75
2020/12/20 03:22:30;;;;;;;5.97;4.00;;;7.70;62.40;;;;;;5033162;28;20032;-74
2020/12/20 03:24:56;;;;;;;6.60;4.35;;;7.60;62.70;;;;;;5033295;28;20025;-73
2020/12/20 03:27:21;;;;;;;7.90;4.50;;;7.60;62.90;;;;;;5015279;28;20031;-76
2020/12/20 03:29:47;;;;;;;6.05;4.05;;;7.60;63.10;;;;;;5032652;28;20370;-73
2020/12/20 03:32:12;;;;;;;7.60;4.53;;;7.60;63.30;;;;;;5033163;28;20026;-73
2020/12/20 03:34:38;;;;;;;5.47;3.92;;;7.50;63.60;;;;;;5033290;28;20026;-72
2020/12/20 03:37:04;;;;;;;6.10;3.95;;;7.50;64.10;;;;;;5033110;28;20025;-72
2020/12/20 03:39:30;;;;;;;7.10;5.10;;;7.50;64.20;;;;;;5033284;28;20026;-72
2020/12/20 03:41:56;;;;;;;4.35;3.67;;;7.50;64.10;;;;;;5033014;28;20044;-73
2020/12/20 03:44:21;;;;;;;7.05;3.78;;;7.50;64.00;;;;;;5033087;28;20049;-73
2020/12/20 03:46:47;;;;;;;5.32;3.45;;;7.60;63.90;;;;;;5015429;28;20111;-80
2020/12/20 03:49:13;;;;;;;5.45;3.83;;;7.60;64.00;;;;;;5032985;28;20030;-72
2020/12/20 03:51:38;;;;;;;5.40;3.50;;;7.60;64.00;;;;;;5032951;28;20560;-73
2020/12/20 03:54:04;;;;;;;4.90;3.60;;;7.70;64.10;;;;;;5032934;28;20427;-72
2020/12/20 03:56:33;;;;;;;7.35;3.17;;;7.60;63.60;;;;;;5032974;28;20030;-73
2020/12/20 03:59:00;;;;;;;4.53;2.50;;;7.70;63.40;;;;;;5032924;28;20033;-72
2020/12/20 04:01:25;;;;;;;4.90;3.10;;;7.70;62.70;;;;;;5015132;28;20455;-74
2020/12/20 04:03:51;;;;;;;4.97;3.20;;;7.70;62.10;;;;;;5033036;28;20032;-73
2020/12/20 04:06:17;;;;;;;4.38;2.50;;;7.80;62.00;;;;;;5033004;28;20029;-75
2020/12/20 04:08:42;;;;;;;6.05;3.58;;;7.80;62.00;;;;;;5032998;28;20104;-73
2020/12/20 04:11:08;;;;;;;4.93;3.33;;;7.80;62.30;;;;;;5032862;28;20033;-72
2020/12/20 04:13:33;;;;;;;4.82;3.15;;;7.80;62.50;;;;;;5032889;28;20030;-74
2020/12/20 04:16:04;;;;;;;4.88;3.55;;;7.80;62.50;;;;;;5032771;28;20040;-74
2020/12/20 04:18:30;;;;;;;5.80;3.40;;;7.70;63.30;;;;;;5033127;28;20026;-78
2020/12/20 04:20:55;;;;;;;4.72;3.63;;;7.70;63.20;;;;;;5014952;28;20385;-73
2020/12/20 04:23:21;;;;;;;5.80;3.40;;;7.70;63.40;;;;;;5032719;28;20496;-73
2020/12/20 04:25:46;;;;;;;5.25;2.90;;;7.70;63.40;;;;;;5032733;28;20026;-73
2020/12/20 04:28:12;;;;;;;4.80;2.95;;;7.70;63.40;;;;;;5032705;28;20087;-73
2020/12/20 04:30:37;;;;;;;5.85;3.65;;;7.70;63.20;;;;;;5014911;28;20428;-73
2020/12/20 04:33:03;;;;;;;4.00;2.80;;;7.70;63.10;;;;;;5032631;28;20026;-76
2020/12/20 04:35:29;;;;;;;5.22;3.50;;;7.70;63.00;;;;;;5032697;28;20025;-72
2020/12/20 04:37:54;;;;;;;4.90;3.50;;;7.70;63.40;;;;;;5032561;28;20073;-72
2020/12/20 04:40:23;;;;;;;4.38;3.30;;;7.70;63.50;;;;;;5034596;28;20021;-72
2020/12/20 04:42:48;;;;;;;5.13;3.20;;;7.60;63.50;;;;;;5036162;28;20444;-74
2020/12/20 04:45:16;;;;;;;4.03;2.75;;;7.60;63.70;;;;;;5036122;28;20030;-73
2020/12/20 04:47:44;;;;;;;3.75;3.22;;;7.60;63.80;;;;;;5036177;28;20049;-73
2020/12/20 04:50:12;;;;;;;5.50;3.53;;;7.60;63.90;;;;;;5036125;28;20048;-73
2020/12/20 04:52:39;;;;;;;5.65;3.85;;;7.50;64.30;;;;;;5036258;28;20013;-73
2020/12/20 04:55:05;;;;;;;6.90;3.88;;;7.50;64.80;;;;;;5036066;28;20512;-72
2020/12/20 04:57:34;;;;;;;6.13;4.15;;;7.40;64.90;;;;;;5036095;28;20029;-73
2020/12/20 05:00:05;;;;;;;5.10;3.60;;;7.30;65.20;;;;;;5035813;28;20021;-73
2020/12/20 05:02:31;;;;;;;5.90;3.38;;;7.40;65.40;;;;;;5018331;28;20049;-72
2020/12/20 05:04:57;;;;;;;11.73;4.38;;;7.30;65.60;;;;;;5018058;28;20385;-72
2020/12/20 05:07:22;;;;;;;8.25;4.20;;;7.30;65.70;;;;;;5035841;28;20036;-72
2020/12/20 05:09:48;;;;;;;9.13;4.07;;;7.30;65.80;;;;;;5035860;28;20021;-72
2020/12/20 05:12:32;;;;;;;8.95;3.72;;;7.30;65.80;;;;;;5035713;28;20030;-73
2020/12/20 05:14:59;;;;;;;6.45;3.53;;;7.30;65.50;;;;;;5035663;28;20041;-72
2020/12/20 05:17:27;;;;;;;5.50;3.75;;;7.40;65.30;;;;;;5035917;28;20044;-72
2020/12/20 05:19:53;;;;;;;6.03;4.13;;;7.40;65.00;;;;;;5035535;28;20507;-73
2020/12/20 05:22:21;;;;;;;5.45;3.72;;;7.50;65.30;;;;;;5017720;28;20041;-72
2020/12/20 05:24:51;;;;;;;6.55;4.30;;;7.40;65.10;;;;;;5035532;28;20029;-72
2020/12/20 05:27:23;;;;;;;9.43;4.70;;;7.40;65.50;;;;;;5035546;28;20025;-72
2020/12/20 05:29:52;;;;;;;5.18;3.67;;;7.40;65.80;;;;;;5035508;28;20054;-73
2020/12/20 05:32:45;;;;;;;6.60;3.95;;;7.40;65.90;;;;;;5035447;28;20024;-72
2020/12/20 05:35:13;;;;;;;5.97;3.88;;;7.40;65.90;;;;;;5031235;28;20405;-73
2020/12/20 05:37:40;;;;;;;7.95;3.80;;;7.40;65.80;;;;;;5017504;28;20142;-72
2020/12/20 05:40:29;;;;;;;5.55;4.18;;;7.40;65.70;;;;;;5035077;28;20025;-72
2020/12/20 05:43:01;;;;;;;7.32;4.40;;;7.50;65.60;;;;;;5035199;28;20030;-72
2020/12/20 05:45:32;;;;;;;7.85;3.70;;;7.50;65.00;;;;;;5035144;28;20465;-72
2020/12/20 05:47:58;;;;;;;6.32;3.75;;;7.50;64.70;;;;;;5035102;28;20101;-72
2020/12/20 05:50:28;;;;;;;6.68;3.30;;;7.40;64.80;;;;;;5034787;28;20032;-72
2020/12/20 05:53:02;;;;;;;5.10;3.20;;;7.40;64.70;;;;;;5034377;28;20385;-72
2020/12/20 05:55:35;;;;;;;4.65;3.38;;;7.40;64.60;;;;;;5034936;28;20018;-73
2020/12/20 05:58:11;;;;;;;5.38;4.10;;;7.40;64.70;;;;;;5034882;28;20060;-72
2020/12/20 06:00:38;;;;;;;5.68;3.97;;;7.40;64.80;;;;;;5034561;28;20022;-77
2020/12/20 06:03:04;;;;;;;4.70;3.42;;;7.40;64.80;;;;;;5034528;28;20072;-72
2020/12/20 06:05:34;;;;;;;8.48;3.70;;;7.40;65.00;;;;;;5034551;28;20113;-72
2020/12/20 06:08:05;;;;;;;4.68;3.20;;;7.40;65.10;;;;;;5034636;28;20108;-74
2020/12/20 06:10:43;;;;;;;4.75;3.63;;;7.40;65.20;;;;;;5034641;28;20029;-73
2020/12/20 06:13:13;;;;;;;6.68;4.05;;;7.40;65.50;;;;;;5016767;28;20074;-74
2020/12/20 06:15:41;;;;;;;5.90;3.72;;;7.30;65.70;;;;;;5034464;28;20100;-71
2020/12/20 06:18:12;;;;;;;8.20;2.95;;;7.40;65.80;;;;;;5034510;28;20029;-72
2020/12/20 06:20:56;;;;;;;6.25;3.08;;;7.40;65.60;;;;;;5034301;28;20030;-72
2020/12/20 06:23:26;;;;;;;6.30;3.63;;;7.50;65.60;;;;;;5034453;28;20040;-73
2020/12/20 06:25:54;;;;;;;5.72;3.65;;;7.50;65.60;;;;;;5016451;28;20481;-72
2020/12/20 06:28:24;;;;;;;6.05;3.22;;;7.50;65.50;;;;;;5034261;28;20036;-72
2020/12/20 06:30:51;;;;;;;5.60;3.08;;;7.50;65.40;;;;;;5034284;28;20072;-72
2020/12/20 06:33:25;;;;;;;5.03;3.20;;;7.50;65.50;;;;;;5034290;28;20023;-72
2020/12/20 06:35:51;;;;;;;7.97;4.18;;;7.60;65.40;;;;;;5034065;28;20025;-73
2020/12/20 06:38:20;;;;;;;5.18;3.28;;;7.60;65.60;;;;;;5034148;28;20424;-73
2020/12/20 06:40:46;;;;;;;5.18;3.45;;;7.60;65.40;;;;;;5034046;28;20489;-73
2020/12/20 06:43:12;;;;;;;3.45;2.75;;;7.60;65.40;;;;;;5033930;28;20084;-73
2020/12/20 06:45:43;;;;;;;7.18;4.63;;;7.70;65.30;;;;;;5016168;28;20385;-73
2020/12/20 06:48:10;;;;;;;5.53;3.55;;;7.70;65.20;;;;;;5033825;28;20021;-73
2020/12/20 06:50:38;;;;;;;8.55;3.80;;;7.60;65.10;;;;;;5033843;28;20053;-73
2020/12/20 06:53:18;;;;;;;5.68;3.45;;;7.50;65.30;;;;;;5033753;28;20492;-73
2020/12/20 06:55:45;;;;;;;4.50;3.08;;;7.50;65.60;;;;;;5033774;28;20031;-73
2020/12/20 06:58:18;;;;;;;4.90;3.05;;;7.50;65.60;;;;;;5033744;28;20053;-73
2020/12/20 07:00:56;;;;;;;5.85;3.10;;;7.50;65.70;;;;;;5033457;28;20021;-72
2020/12/20 07:03:24;;;;;;;4.65;3.33;;;7.50;66.10;;;;;;5032979;28;20519;-73
2020/12/20 07:05:57;;;;;;;4.72;3.45;;;7.50;66.10;;;;;;5033253;28;20040;-73
2020/12/20 07:08:32;;;;;;;5.82;3.08;;;7.50;66.10;;;;;;5033497;28;20045;-73
2020/12/20 07:11:05;;;;;;;6.28;3.63;;;7.50;66.10;;;;;;5033263;28;20029;-72
2020/12/20 07:13:41;;;;;;;6.93;4.43;;;7.40;65.70;;;;;;5033547;28;20030;-72
2020/12/20 07:16:10;;;;;;;6.22;3.88;;;7.40;65.70;;;;;;5033202;28;20033;-72
2020/12/20 07:18:57;;;;;;;6.15;4.25;;;7.40;65.70;;;;;;5033396;28;20413;-71
2020/12/20 07:21:23;;;;;;;7.32;4.22;;;7.40;65.70;;;;;;5015284;28;20034;-71
2020/12/20 07:23:53;;;;;;;5.80;3.75;;;7.40;66.00;;;;;;5033130;28;20505;-72
2020/12/20 07:26:22;;;;;;;5.13;3.08;;;7.40;66.10;;;;;;5033128;28;20112;-72
2020/12/20 07:28:48;;;;;;;5.00;3.25;;;7.40;66.20;;;;;;5033294;28;20026;-83
2020/12/20 07:31:19;;;;;;;5.25;3.25;;;7.50;66.20;;;;;;5015405;28;20029;-83
2020/12/20 07:33:46;;;;;;;5.85;2.90;;;7.60;66.10;;;;;;5033288;28;20052;-83
2020/12/20 07:36:12;;;;;;;5.63;2.70;;;7.60;65.90;;;;;;5033376;28;20104;-83
2020/12/20 07:38:38;;;;;;;4.60;3.53;;;7.70;65.80;;;;;;5036296;28;20456;-80
2020/12/20 07:41:11;;;;;;;6.35;3.80;;;7.70;65.60;;;;;;5033564;28;20423;-82
2020/12/20 07:43:37;;;;;;;6.10;4.03;;;7.80;64.90;;;;;;5038313;28;20086;-77
2020/12/20 07:46:05;;;;;;;6.03;3.78;;;7.80;64.50;;;;;;5043876;28;20037;-76
2020/12/20 07:48:31;;;;;;;5.22;3.15;;;7.80;64.20;;;;;;5042203;28;20036;-83
2020/12/20 07:51:14;;;;;;;6.53;4.18;;;7.80;63.80;;;;;;5039436;28;20022;-80
2020/12/20 07:53:51;;;;;;;8.20;3.78;;;7.80;63.80;;;;;;5043807;28;20025;-80
2020/12/20 07:56:23;;;;;;;7.43;3.95;;;7.90;63.70;;;;;;5033545;28;20030;-72
2020/12/20 07:58:50;;;;;;;7.43;4.30;;;7.90;63.40;;;;;;5032657;28;20148;-74
2020/12/20 08:01:15;;;;;;;6.07;3.85;;;7.90;63.20;;;;;;5032666;28;20038;-73
2020/12/20 08:03:41;;;;;;;6.53;4.13;;;7.90;63.20;;;;;;5032733;28;20037;-73
2020/12/20 08:06:08;;;;;;;4.13;3.17;;;7.90;63.30;;;;;;5032670;28;20377;-73
2020/12/20 08:08:34;;;;;;;6.07;3.92;;;7.90;64.30;;;;;;5032697;28;20056;-73
2020/12/20 08:11:16;;;;;;;5.93;4.18;;;7.80;63.70;;;;;;5032599;28;20384;-73
2020/12/20 08:13:52;;;;;;;5.43;3.80;;;7.70;63.80;;;;;;5032521;28;20099;-73
2020/12/20 08:16:40;;;;;;;8.00;4.70;;;7.70;63.70;;;;;;5036397;28;20036;-72
2020/12/20 08:19:08;;;;;;;7.10;3.97;;;7.80;63.90;;;;;;5039032;28;20038;-74
2020/12/20 08:21:56;;;;;;;6.03;3.90;;;7.90;66.70;;;;;;5036769;28;20087;-74
2020/12/20 08:24:27;;;;;;;8.00;4.45;;;8.20;66.40;;;;;;5043687;28;20017;-73
2020/12/20 08:26:53;;;;;;;5.50;3.83;;;8.40;64.60;;;;;;5036881;28;20021;-72
2020/12/20 08:29:19;;;;;;;14.82;3.97;;;8.50;63.30;;;;;;5035160;28;20033;-75
2020/12/20 08:31:45;;;;;;;9.93;4.30;;;8.70;66.60;;;;;;5036175;28;20029;-75
2020/12/20 08:34:20;;;;;;;8.23;4.78;;;9.00;64.60;;;;;;5035862;28;20024;-73
2020/12/20 08:36:52;;;;;;;10.38;5.07;;;9.10;61.90;;;;;;5018400;28;20056;-76
2020/12/20 08:39:25;;;;;;;6.22;4.22;;;9.30;61.20;;;;;;5035984;28;20029;-75
2020/12/20 08:42:20;;;;;;;7.22;4.05;;;9.50;60.00;;;;;;5035722;28;20526;-74
2020/12/20 08:44:47;;;;;;;10.75;4.22;;;9.60;59.40;;;;;;5014575;28;20072;-75
2020/12/20 08:47:17;;;;;;;6.40;3.58;;;9.70;58.20;;;;;;5036051;28;20088;-75
2020/12/20 08:49:57;;;;;;;6.28;3.67;;;9.70;58.80;;;;;;5035866;28;20022;-77
2020/12/20 08:52:26;;;;;;;4.88;3.17;;;9.60;57.40;;;;;;5035941;28;20024;-74
2020/12/20 08:54:54;;;;;;;8.38;3.70;;;9.50;57.80;;;;;;5017814;28;20079;-74
2020/12/20 08:57:24;;;;;;;7.55;3.92;;;9.50;58.70;;;;;;5035563;28;20025;-74
2020/12/20 08:59:50;;;;;;;6.35;4.00;;;9.50;59.10;;;;;;5035534;28;20025;-73
2020/12/20 09:02:21;;;;;;;7.53;3.78;;;9.50;58.60;;;;;;5035461;28;20512;-75
2020/12/20 09:04:55;;;;;;;6.93;3.95;;;9.70;59.50;;;;;;5035668;28;20169;-73
2020/12/20 09:07:29;;;;;;;8.32;4.93;;;9.80;58.30;;;;;;5035590;28;20424;-74
2020/12/20 09:10:11;;;;;;;9.10;5.68;;;9.70;57.80;;;;;;5035549;28;20075;-74
2020/12/20 09:12:58;;;;;;;9.40;5.85;;;9.60;57.80;;;;;;5035402;28;20503;-73
2020/12/20 09:15:30;;;;;;;9.50;6.45;;;9.60;57.90;;;;;;5034680;28;20045;-73
2020/12/20 09:18:17;;;;;;;9.25;6.35;;;9.60;58.30;;;;;;5035057;28;20531;-72
2020/12/20 09:20:45;;;;;;;9.88;6.80;;;9.70;58.00;;;;;;5035294;28;20124;-73
2020/12/20 09:23:24;;;;;;;9.23;6.35;;;9.70;57.80;;;;;;5035247;28;20104;-72
2020/12/20 09:26:00;;;;;;;10.50;5.55;;;9.70;57.40;;;;;;5017440;28;20431;-72
2020/12/20 09:28:28;;;;;;;7.18;4.82;;;9.60;57.50;;;;;;5035152;28;20022;-74
2020/12/20 09:30:55;;;;;;;6.65;4.78;;;9.70;57.40;;;;;;5035199;28;20025;-72
2020/12/20 09:33:26;;;;;;;7.82;4.63;;;9.80;57.10;;;;;;5035212;28;20033;-73
2020/12/20 09:35:59;;;;;;;7.28;4.65;;;9.70;57.00;;;;;;5035280;28;20033;-73
2020/12/20 09:38:28;;;;;;;6.40;4.38;;;9.70;56.90;;;;;;5035085;28;20022;-73
2020/12/20 09:40:58;;;;;;;7.38;4.18;;;9.70;56.90;;;;;;5035123;28;20424;-76
2020/12/20 09:43:24;;;;;;;7.70;4.55;;;9.60;56.80;;;;;;5035393;28;20096;-77
2020/12/20 09:45:50;;;;;;;4.78;3.70;;;9.40;57.10;;;;;;5035058;28;20022;-74
2020/12/20 09:48:15;;;;;;;6.65;3.45;;;9.40;57.30;;;;;;5005082;28;20157;-73
2020/12/20 09:50:41;;;;;;;5.45;3.30;;;9.40;57.30;;;;;;5015171;28;20056;-73
2020/12/20 09:53:07;;;;;;;4.75;3.03;;;9.40;57.60;;;;;;5015061;28;20042;-74
2020/12/20 09:55:32;;;;;;;3.97;2.53;;;9.40;57.70;;;;;;5015004;28;20484;-74
2020/12/20 09:57:58;;;;;;;4.90;3.08;;;9.50;57.60;;;;;;5014973;28;20129;-73
2020/12/20 10:00:24;;;;;;;4.32;2.95;;;9.50;57.60;;;;;;5014906;28;20038;-73
2020/12/20 10:02:50;;;;;;;7.80;3.72;;;9.50;57.70;;;;;;5029247;28;20103;-74
2020/12/20 10:05:15;;;;;;;7.95;4.45;;;9.50;57.80;;;;;;5034612;28;20025;-73
2020/12/20 10:07:41;;;;;;;7.57;4.45;;;9.60;58.00;;;;;;5034378;28;20044;-73
2020/12/20 10:10:07;;;;;;;6.50;4.57;;;9.70;58.10;;;;;;5034491;28;20026;-74
2020/12/20 10:12:34;;;;;;;13.15;5.75;;;9.70;58.00;;;;;;5034492;28;20061;-73
2020/12/20 10:14:59;;;;;;;7.93;4.72;;;9.80;58.50;;;;;;5034273;28;20030;-73
2020/12/20 10:17:25;;;;;;;9.73;5.10;;;9.80;57.60;;;;;;5016567;28;20025;-75
2020/12/20 10:19:53;;;;;;;9.13;4.28;;;9.80;57.60;;;;;;5034260;28;20086;-74
2020/12/20 10:22:19;;;;;;;4.80;3.53;;;9.90;57.50;;;;;;5034110;28;20222;-73
2020/12/20 10:24:44;;;;;;;7.38;3.58;;;10.00;57.00;;;;;;5034228;28;20021;-76
2020/12/20 10:27:10;;;;;;;9.50;4.72;;;10.00;56.70;;;;;;5034075;28;20049;-75
2020/12/20 10:29:35;;;;;;;6.22;4.43;;;10.10;57.20;;;;;;5033982;28;20493;-73
2020/12/20 10:32:01;;;;;;;9.40;4.97;;;10.20;58.30;;;;;;5034083;28;20313;-73
2020/12/20 10:34:27;;;;;;;11.93;5.45;;;10.20;58.90;;;;;;5016313;28;20029;-73
2020/12/20 10:36:52;;;;;;;9.77;5.38;;;10.10;59.80;;;;;;5033641;28;20021;-73
2020/12/20 10:39:18;;;;;;;8.75;5.47;;;10.20;60.40;;;;;;5034078;28;20100;-73
2020/12/20 10:41:44;;;;;;;11.93;5.30;;;10.20;60.90;;;;;;5033749;28;20034;-73
2020/12/20 10:44:10;;;;;;;7.65;5.32;;;10.30;61.30;;;;;;5033740;28;20072;-74
2020/12/20 10:46:36;;;;;;;8.15;5.18;;;10.30;61.30;;;;;;5016102;28;20029;-73
2020/12/20 10:49:03;;;;;;;9.65;5.72;;;10.50;61.20;;;;;;5034021;28;20018;-74
2020/12/20 10:51:29;;;;;;;11.13;5.43;;;10.70;61.20;;;;;;5034751;28;20021;-73
2020/12/20 10:53:54;;;;;;;8.93;5.35;;;10.90;61.00;;;;;;5033945;28;20071;-73
2020/12/20 10:56:21;;;;;;;11.07;6.18;;;11.40;59.70;;;;;;5033781;28;20035;-73
2020/12/20 10:58:50;;;;;;;8.68;5.38;;;11.70;58.30;;;;;;5033813;28;20036;-74
2020/12/20 11:01:20;;;;;;;10.23;5.13;;;11.80;56.90;;;;;;5033426;28;20429;-73
2020/12/20 11:03:49;;;;;;;9.45;4.88;;;11.90;56.40;;;;;;5033609;28;20034;-73
2020/12/20 11:06:19;;;;;;;9.85;4.93;;;12.10;56.00;;;;;;5033554;28;20087;-73
2020/12/20 11:08:46;;;;;;;7.32;4.50;;;12.20;55.30;;;;;;5033587;28;20033;-73
2020/12/20 11:11:13;;;;;;;7.75;4.63;;;12.30;54.80;;;;;;5033331;28;20466;-78
2020/12/20 11:13:41;;;;;;;11.70;5.32;;;12.40;54.30;;;;;;5015548;28;20430;-73
2020/12/20 11:16:17;;;;;;;8.95;4.75;;;12.60;54.10;;;;;;5033267;28;20481;-73
2020/12/20 11:18:45;;;;;;;9.77;4.53;;;12.80;53.40;;;;;;5033340;28;20076;-73
2020/12/20 11:21:16;;;;;;;9.75;4.70;;;13.30;52.60;;;;;;5033267;28;20025;-73
2020/12/20 11:23:42;;;;;;;8.45;4.72;;;13.60;51.40;;;;;;5033299;28;20028;-73
2020/12/20 11:26:09;;;;;;;6.53;4.03;;;13.80;50.70;;;;;;5033185;28;20022;-73
2020/12/20 11:28:35;;;;;;;5.93;3.60;;;13.80;50.00;;;;;;5033174;28;20048;-73
2020/12/20 11:31:01;;;;;;;6.90;4.13;;;13.90;49.70;;;;;;5032961;28;20469;-73
2020/12/20 11:33:27;;;;;;;7.30;4.18;;;14.00;49.30;;;;;;5033232;28;20025;-73
2020/12/20 11:35:52;;;;;;;4.88;3.75;;;14.40;48.70;;;;;;5033049;28;20565;-73
2020/12/20 11:38:18;;;;;;;7.82;4.28;;;15.60;47.20;;;;;;5033066;28;20029;-73
2020/12/20 11:40:43;;;;;;;6.72;3.50;;;16.90;44.30;;;;;;5032751;28;20100;-73
2020/12/20 11:43:09;;;;;;;7.43;3.97;;;17.10;41.90;;;;;;5015195;28;20060;-73
2020/12/20 11:45:35;;;;;;;5.28;3.47;;;16.80;41.00;;;;;;5032922;28;20026;-74
2020/12/20 11:48:00;;;;;;;5.80;3.92;;;16.50;41.00;;;;;;5032812;28;20026;-73
2020/12/20 11:50:26;;;;;;;5.97;4.25;;;16.10;41.30;;;;;;5031974;28;20510;-74
2020/12/20 11:52:52;;;;;;;9.07;3.88;;;15.70;42.10;;;;;;5032612;28;20036;-74
2020/12/20 11:55:18;;;;;;;6.72;4.05;;;15.20;43.00;;;;;;5032841;28;20026;-74
2020/12/20 11:57:43;;;;;;;8.32;4.30;;;14.80;44.20;;;;;;5032795;28;20028;-74
2020/12/20 12:00:09;;;;;;;5.25;3.92;;;14.40;45.30;;;;;;5015618;28;20025;-75
2020/12/20 12:02:34;;;;;;;9.20;4.15;;;14.20;46.50;;;;;;5033308;28;20052;-74
2020/12/20 12:05:00;;;;;;;6.35;3.45;;;13.90;47.50;;;;;;5033025;28;20079;-74
2020/12/20 12:07:25;;;;;;;6.93;3.72;;;13.70;48.10;;;;;;5032996;28;20033;-74
2020/12/20 12:09:51;;;;;;;7.25;4.13;;;13.70;48.50;;;;;;5032706;28;20037;-74
2020/12/20 12:12:16;;;;;;;5.00;3.55;;;13.70;48.80;;;;;;5032768;28;20029;-74
2020/12/20 12:14:42;;;;;;;6.13;3.13;;;13.70;48.90;;;;;;5032663;28;20026;-74
2020/12/20 12:17:07;;;;;;;6.45;3.13;;;13.80;48.90;;;;;;5032704;28;20095;-74
2020/12/20 12:19:33;;;;;;;7.75;3.03;;;13.80;48.80;;;;;;5032683;28;20056;-73
2020/12/20 12:21:58;;;;;;;6.90;3.03;;;13.90;48.90;;;;;;5032408;28;20033;-73
2020/12/20 12:24:24;;;;;;;6.35;2.95;;;13.90;48.90;;;;;;5032557;28;20029;-74
2020/12/20 12:26:50;;;;;;;5.35;3.00;;;14.00;48.80;;;;;;5032751;28;20037;-75
2020/12/20 12:29:16;;;;;;;3.95;3.08;;;14.10;48.80;;;;;;5032646;28;20076;-74
2020/12/20 12:31:41;;;;;;;5.57;3.10;;;14.20;48.70;;;;;;5032305;28;20022;-84
2020/12/20 12:34:07;;;;;;;5.32;3.28;;;14.60;48.60;;;;;;5032613;28;20025;-74
2020/12/20 12:36:32;;;;;;;7.80;3.60;;;15.10;48.10;;;;;;5032439;28;20090;-74
2020/12/20 12:38:59;;;;;;;5.93;3.40;;;16.30;46.90;;;;;;5032458;28;20436;-80
2020/12/20 12:41:27;;;;;;;7.63;3.75;;;18.30;44.30;;;;;;5032224;28;20458;-76
2020/12/20 12:43:52;;;;;;;6.57;3.35;;;20.40;40.60;;;;;;5032307;28;20025;-75
2020/12/20 12:46:18;;;;;;;11.30;4.72;;;21.50;38.40;;;;;;5032343;28;20032;-80
2020/12/20 12:48:43;;;;;;;6.40;4.32;;;21.20;36.50;;;;;;5032142;28;20022;-77
2020/12/20 12:51:09;;;;;;;9.13;5.75;;;20.40;35.10;;;;;;5032195;28;20359;-75
2020/12/20 12:53:34;;;;;;;9.60;5.28;;;19.50;35.50;;;;;;5014605;28;20132;-74
2020/12/20 12:56:07;;;;;;;8.95;5.30;;;18.60;36.60;;;;;;5014573;28;20464;-81
2020/12/20 12:58:33;;;;;;;12.27;4.13;;;17.50;38.70;;;;;;5032248;28;20021;-76